createdAt,value
2018-06-30T00:02:08.964Z,15.90
2018-06-30T00:04:36.514Z,15.90
2018-06-30T00:07:04.848Z,15.80
2018-06-30T00:09:33.182Z,15.80
2018-06-30T00:12:01.517Z,15.70
2018-06-30T00:14:29.835Z,15.70
2018-06-30T00:16:58.145Z,15.70
2018-06-30T00:19:26.478Z,15.70
2018-06-30T00:21:54.785Z,15.60
2018-06-30T00:24:23.119Z,15.60
2018-06-30T00:26:51.436Z,15.60
2018-06-30T00:29:19.769Z,15.50
2018-06-30T00:31:48.076Z,15.50
2018-06-30T00:34:16.416Z,15.50
2018-06-30T00:36:44.730Z,15.40
2018-06-30T00:39:13.065Z,15.40
2018-06-30T00:41:41.373Z,15.40
2018-06-30T00:44:09.729Z,15.30
2018-06-30T00:46:38.049Z,15.30
2018-06-30T00:49:06.392Z,15.20
2018-06-30T00:51:34.733Z,15.20
2018-06-30T00:54:03.063Z,15.20
2018-06-30T00:56:31.377Z,15.10
2018-06-30T00:58:59.722Z,15.10
2018-06-30T01:01:28.035Z,15.10
2018-06-30T01:03:56.373Z,15.10
2018-06-30T01:06:24.681Z,15.00
2018-06-30T01:08:53.017Z,15.00
2018-06-30T01:11:21.329Z,15.00
2018-06-30T01:13:49.661Z,14.90
2018-06-30T01:16:17.968Z,14.90
2018-06-30T01:18:46.310Z,14.80
2018-06-30T01:21:14.626Z,14.80
2018-06-30T01:23:42.962Z,14.80
2018-06-30T01:26:11.278Z,14.80
2018-06-30T01:28:39.612Z,14.70
2018-06-30T01:31:07.920Z,14.70
2018-06-30T01:33:36.253Z,14.60
2018-06-30T01:36:04.561Z,14.60
2018-06-30T01:38:32.898Z,14.50
2018-06-30T01:41:01.219Z,14.50
2018-06-30T01:43:29.552Z,14.40
2018-06-30T01:45:57.870Z,14.40
2018-06-30T01:48:26.208Z,14.40
2018-06-30T01:50:54.521Z,14.40
2018-06-30T01:53:22.870Z,14.30
2018-06-30T01:55:51.182Z,14.30
2018-06-30T01:58:19.526Z,14.30
2018-06-30T02:00:47.845Z,14.30
2018-06-30T02:03:16.189Z,14.20
2018-06-30T02:05:44.506Z,14.20
2018-06-30T02:08:12.824Z,14.20
2018-06-30T02:10:41.161Z,14.10
2018-06-30T02:13:09.477Z,14.10
2018-06-30T02:15:37.801Z,14.10
2018-06-30T02:18:06.113Z,14.10
2018-06-30T02:20:34.458Z,14.00
2018-06-30T02:23:02.788Z,14.00
2018-06-30T02:25:31.125Z,14.00
2018-06-30T02:27:59.447Z,13.90
2018-06-30T02:30:27.785Z,13.90
2018-06-30T02:32:56.108Z,13.90
2018-06-30T02:35:24.449Z,13.80
2018-06-30T02:37:52.757Z,13.80
2018-06-30T02:40:21.127Z,13.80
2018-06-30T02:42:49.442Z,13.80
2018-06-30T02:45:17.788Z,13.80
2018-06-30T02:47:46.107Z,13.80
2018-06-30T02:50:14.437Z,13.80
2018-06-30T02:52:42.766Z,13.70
2018-06-30T02:55:11.116Z,13.70
2018-06-30T02:57:39.437Z,13.70
2018-06-30T03:00:07.774Z,13.70
2018-06-30T03:02:36.088Z,13.60
2018-06-30T03:05:04.426Z,13.60
2018-06-30T03:07:32.750Z,13.60
2018-06-30T03:10:01.093Z,13.60
2018-06-30T03:12:29.425Z,13.50
2018-06-30T03:14:57.758Z,13.50
2018-06-30T03:17:26.078Z,13.50
2018-06-30T03:19:54.429Z,13.50
2018-06-30T03:22:22.754Z,13.50
2018-06-30T03:24:51.091Z,13.50
2018-06-30T03:27:19.411Z,13.50
2018-06-30T03:29:47.761Z,13.50
2018-06-30T03:32:16.076Z,13.50
2018-06-30T03:34:44.409Z,13.50
2018-06-30T03:37:12.718Z,13.50
2018-06-30T03:39:41.061Z,13.50
2018-06-30T03:42:09.369Z,13.50
2018-06-30T03:44:37.708Z,13.50
2018-06-30T03:47:06.017Z,13.50
2018-06-30T03:49:34.352Z,13.50
2018-06-30T03:52:02.672Z,13.50
2018-06-30T03:54:31.013Z,13.50
2018-06-30T03:56:59.329Z,13.50
2018-06-30T03:59:27.672Z,13.50
2018-06-30T04:01:55.986Z,13.50
2018-06-30T04:04:24.302Z,13.50
2018-06-30T04:06:52.641Z,13.90
2018-06-30T04:09:20.957Z,14.60
2018-06-30T04:11:49.297Z,15.30
2018-06-30T04:14:17.604Z,15.90
2018-06-30T04:16:46.008Z,16.50
2018-06-30T04:19:14.285Z,16.90
2018-06-30T04:21:42.633Z,17.30
2018-06-30T04:24:10.954Z,17.30
2018-06-30T04:26:39.297Z,17.00
2018-06-30T04:29:07.616Z,16.70
2018-06-30T04:31:35.953Z,16.40
2018-06-30T04:34:04.265Z,16.30
2018-06-30T04:36:32.610Z,16.70
2018-06-30T04:39:00.920Z,17.20
2018-06-30T04:41:29.262Z,17.90
2018-06-30T04:43:57.574Z,18.50
2018-06-30T04:46:25.907Z,19.00
2018-06-30T04:48:54.225Z,19.30
2018-06-30T04:51:22.566Z,19.50
2018-06-30T04:53:50.874Z,19.60
2018-06-30T04:56:19.201Z,19.90
2018-06-30T04:58:47.509Z,20.10
2018-06-30T05:01:15.850Z,20.30
2018-06-30T05:03:44.163Z,20.50
2018-06-30T05:06:12.500Z,20.60
2018-06-30T05:08:40.820Z,20.70
2018-06-30T05:11:09.156Z,20.90
2018-06-30T05:13:37.473Z,21.00
2018-06-30T05:16:05.805Z,21.00
2018-06-30T05:18:34.122Z,20.80
2018-06-30T05:21:02.466Z,20.50
2018-06-30T05:23:30.784Z,20.00
2018-06-30T05:25:59.149Z,19.60
2018-06-30T05:28:27.459Z,19.30
2018-06-30T05:30:55.800Z,19.20
2018-06-30T05:33:24.152Z,19.00
2018-06-30T05:35:52.467Z,18.80
2018-06-30T05:38:20.785Z,18.70
2018-06-30T05:40:49.125Z,18.70
2018-06-30T05:43:17.441Z,18.60
2018-06-30T05:45:45.778Z,18.60
2018-06-30T05:48:14.088Z,18.70
2018-06-30T05:50:42.432Z,18.70
2018-06-30T05:53:10.810Z,18.80
2018-06-30T05:55:39.115Z,18.90
2018-06-30T05:58:07.428Z,19.00
2018-06-30T06:00:35.764Z,19.10
2018-06-30T06:03:04.093Z,19.20
2018-06-30T06:05:32.420Z,19.30
2018-06-30T06:08:00.763Z,19.50
2018-06-30T06:10:29.087Z,19.70
2018-06-30T06:12:57.426Z,19.80
2018-06-30T06:15:25.748Z,19.90
2018-06-30T06:17:54.112Z,20.10
2018-06-30T06:20:22.425Z,20.30
2018-06-30T06:22:50.761Z,20.40
2018-06-30T06:25:19.078Z,20.60
2018-06-30T06:27:47.449Z,20.80
2018-06-30T06:30:15.750Z,20.90
2018-06-30T06:32:44.291Z,21.10
2018-06-30T06:35:12.434Z,21.30
2018-06-30T06:37:40.778Z,21.40
2018-06-30T06:40:09.109Z,21.70
2018-06-30T06:42:37.460Z,21.90
2018-06-30T06:45:05.776Z,22.10
2018-06-30T06:47:34.118Z,22.40
2018-06-30T06:50:02.455Z,22.60
2018-06-30T06:52:30.799Z,22.90
2018-06-30T06:54:59.118Z,23.10
2018-06-30T06:57:27.455Z,23.30
2018-06-30T06:59:55.772Z,23.40
2018-06-30T07:02:24.118Z,23.70
2018-06-30T07:04:52.463Z,23.90
2018-06-30T07:07:20.800Z,24.00
2018-06-30T07:09:49.125Z,24.20
2018-06-30T07:12:17.460Z,24.20
2018-06-30T07:14:45.774Z,24.40
2018-06-30T07:17:14.117Z,24.50
2018-06-30T07:19:42.471Z,24.60
2018-06-30T07:22:10.859Z,24.80
2018-06-30T07:24:38.397Z,24.80
2018-06-30T07:27:06.733Z,25.00
2018-06-30T07:29:35.045Z,25.10
2018-06-30T07:32:04.565Z,25.20
2018-06-30T07:34:32.878Z,25.40
2018-06-30T07:37:01.225Z,25.60
2018-06-30T07:39:29.549Z,25.70
2018-06-30T07:41:57.889Z,25.80
2018-06-30T07:44:26.205Z,25.80
2018-06-30T07:46:54.551Z,26.00
2018-06-30T07:49:22.865Z,26.10
2018-06-30T07:51:51.368Z,26.20
2018-06-30T07:54:19.546Z,26.20
2018-06-30T07:56:47.889Z,26.30
2018-06-30T07:59:16.292Z,26.40
2018-06-30T08:01:44.653Z,26.40
2018-06-30T08:04:13.036Z,26.60
2018-06-30T08:06:41.378Z,26.60
2018-06-30T08:09:09.716Z,26.70
2018-06-30T08:11:38.032Z,26.90
2018-06-30T08:14:06.363Z,26.90
2018-06-30T08:16:34.669Z,26.70
2018-06-30T08:19:03.035Z,26.70
2018-06-30T08:21:31.351Z,26.70
2018-06-30T08:23:59.688Z,26.70
2018-06-30T08:26:28.000Z,26.70
2018-06-30T08:28:56.333Z,26.80
2018-06-30T08:31:24.646Z,26.90
2018-06-30T08:33:52.978Z,27.00
2018-06-30T08:36:21.355Z,27.00
2018-06-30T08:38:49.653Z,27.20
2018-06-30T08:41:17.963Z,27.20
2018-06-30T08:43:46.307Z,27.20
2018-06-30T08:46:13.849Z,27.10
2018-06-30T08:48:42.187Z,27.40
2018-06-30T08:51:10.550Z,27.40
2018-06-30T08:53:38.857Z,27.40
2018-06-30T08:56:07.164Z,27.50
2018-06-30T08:58:34.724Z,27.50
2018-06-30T09:01:03.041Z,27.50
2018-06-30T09:03:31.403Z,27.70
2018-06-30T09:05:59.732Z,27.80
2018-06-30T09:08:28.076Z,27.80
2018-06-30T09:10:56.388Z,27.90
2018-06-30T09:13:24.728Z,27.80
2018-06-30T09:15:53.052Z,27.90
2018-06-30T09:18:21.413Z,28.00
2018-06-30T09:20:49.727Z,28.20
2018-06-30T09:23:18.063Z,28.20
2018-06-30T09:25:46.382Z,28.20
2018-06-30T09:28:14.712Z,28.50
2018-06-30T09:30:43.023Z,28.50
2018-06-30T09:33:11.365Z,28.20
2018-06-30T09:35:39.684Z,28.20
2018-06-30T09:38:08.622Z,28.40
2018-06-30T09:40:36.947Z,28.60
2018-06-30T09:43:05.280Z,28.80
2018-06-30T09:45:33.602Z,28.80
2018-06-30T09:48:01.938Z,28.70
2018-06-30T09:50:30.254Z,28.70
2018-06-30T09:52:58.594Z,28.70
2018-06-30T09:55:27.081Z,28.80
2018-06-30T09:57:55.434Z,28.80
2018-06-30T10:00:23.768Z,29.00
2018-06-30T10:02:52.113Z,29.00
2018-06-30T10:05:20.452Z,29.00
2018-06-30T10:07:48.771Z,29.00
2018-06-30T10:10:17.093Z,29.00
2018-06-30T10:12:45.406Z,29.20
2018-06-30T10:15:13.761Z,29.20
2018-06-30T10:17:42.077Z,29.10
2018-06-30T10:20:09.655Z,29.10
2018-06-30T10:22:37.973Z,29.40
2018-06-30T10:25:06.330Z,29.20
2018-06-30T10:27:34.657Z,29.40
2018-06-30T10:30:03.009Z,29.60
2018-06-30T10:32:31.325Z,29.80
2018-06-30T10:34:59.662Z,29.90
2018-06-30T10:37:28.005Z,30.10
2018-06-30T10:39:56.354Z,30.10
2018-06-30T10:42:30.656Z,30.00
2018-06-30T10:44:59.434Z,30.00
2018-06-30T10:47:27.753Z,30.00
2018-06-30T10:49:56.089Z,30.20
2018-06-30T10:52:24.409Z,30.10
2018-06-30T10:54:52.749Z,30.00
2018-06-30T10:57:21.056Z,29.80
2018-06-30T10:59:49.399Z,29.80
2018-06-30T11:02:17.706Z,30.00
2018-06-30T11:04:46.050Z,30.20
2018-06-30T11:07:14.362Z,30.20
2018-06-30T11:09:42.706Z,30.30
2018-06-30T11:12:11.024Z,30.30
2018-06-30T11:14:39.358Z,30.40
2018-06-30T11:17:07.673Z,30.50
2018-06-30T11:19:36.014Z,30.30
2018-06-30T11:22:04.337Z,30.10
2018-06-30T11:24:32.668Z,30.20
2018-06-30T11:27:01.001Z,30.40
2018-06-30T11:29:29.358Z,30.50
2018-06-30T11:31:57.683Z,30.60
2018-06-30T11:34:25.280Z,30.60
2018-06-30T11:36:53.607Z,30.80
2018-06-30T11:39:21.945Z,30.90
2018-06-30T11:41:50.260Z,31.10
2018-06-30T11:44:18.598Z,31.10
2018-06-30T11:46:46.910Z,31.30
2018-06-30T11:49:15.247Z,31.60
2018-06-30T11:51:43.560Z,31.60
2018-06-30T11:54:11.905Z,31.50
2018-06-30T11:56:40.214Z,31.80
2018-06-30T11:59:08.557Z,31.80
2018-06-30T12:01:36.889Z,31.60
2018-06-30T12:04:05.264Z,31.50
2018-06-30T12:06:33.618Z,31.50
2018-06-30T12:09:01.970Z,31.50
2018-06-30T12:11:30.361Z,31.50
2018-06-30T12:13:58.677Z,31.50
2018-06-30T12:16:27.089Z,31.50
2018-06-30T12:18:55.440Z,31.80
2018-06-30T12:21:23.785Z,32.10
2018-06-30T12:23:52.304Z,32.40
2018-06-30T12:26:20.778Z,32.50
2018-06-30T12:28:49.129Z,32.50
2018-06-30T12:31:17.509Z,32.40
2018-06-30T12:33:45.834Z,32.30
2018-06-30T12:36:14.189Z,32.40
2018-06-30T12:38:42.511Z,32.60
2018-06-30T12:41:10.891Z,32.50
2018-06-30T12:43:39.210Z,32.20
2018-06-30T12:46:07.542Z,32.10
2018-06-30T12:48:35.860Z,32.40
2018-06-30T12:51:04.207Z,32.50
2018-06-30T12:53:32.562Z,32.50
2018-06-30T12:56:00.906Z,32.40
2018-06-30T12:58:29.217Z,32.40
2018-06-30T13:00:56.812Z,32.40
2018-06-30T13:03:25.132Z,32.80
2018-06-30T13:05:53.471Z,32.60
2018-06-30T13:08:21.025Z,32.60
2018-06-30T13:10:49.356Z,32.20
2018-06-30T13:13:17.664Z,32.40
2018-06-30T13:15:46.006Z,32.70
2018-06-30T13:18:14.338Z,32.70
2018-06-30T13:20:42.677Z,32.40
2018-06-30T13:23:11.043Z,32.20
2018-06-30T13:25:39.343Z,32.20
2018-06-30T13:28:07.662Z,32.30
2018-06-30T13:30:35.997Z,32.20
2018-06-30T13:33:04.312Z,32.20
2018-06-30T13:35:32.652Z,32.20
2018-06-30T13:38:01.005Z,32.30
2018-06-30T13:40:29.357Z,32.20
2018-06-30T13:42:57.678Z,32.30
2018-06-30T13:45:26.075Z,32.50
2018-06-30T13:47:54.389Z,32.60
2018-06-30T13:50:22.739Z,32.70
2018-06-30T13:52:51.057Z,32.80
2018-06-30T13:55:19.440Z,32.50
2018-06-30T13:57:47.776Z,32.30
2018-06-30T14:00:16.130Z,32.30
2018-06-30T14:02:44.446Z,32.50
2018-06-30T14:05:12.786Z,32.50
2018-06-30T14:07:41.125Z,32.00
2018-06-30T14:10:08.672Z,32.00
2018-06-30T14:12:36.994Z,31.80
2018-06-30T14:15:05.341Z,32.00
2018-06-30T14:17:33.689Z,32.10
2018-06-30T14:20:02.017Z,32.20
2018-06-30T14:22:30.351Z,32.30
2018-06-30T14:24:58.663Z,32.40
2018-06-30T14:27:27.009Z,32.50
2018-06-30T14:29:54.568Z,32.40
2018-06-30T14:32:22.917Z,32.30
2018-06-30T14:34:51.232Z,32.20
2018-06-30T14:37:19.579Z,32.30
2018-06-30T14:39:47.134Z,32.30
2018-06-30T14:42:15.461Z,32.20
2018-06-30T14:44:43.780Z,31.80
2018-06-30T14:47:12.120Z,31.90
2018-06-30T14:49:40.520Z,32.10
2018-06-30T14:52:08.856Z,32.40
2018-06-30T14:54:37.180Z,32.50
2018-06-30T14:57:05.519Z,32.50
2018-06-30T14:59:33.833Z,32.50
2018-06-30T15:02:02.173Z,32.50
2018-06-30T15:04:30.485Z,32.50
2018-06-30T15:06:58.826Z,32.70
2018-06-30T15:09:27.173Z,32.90
2018-06-30T15:11:55.527Z,32.70
2018-06-30T15:14:23.859Z,32.50
2018-06-30T15:16:52.206Z,32.40
2018-06-30T15:19:19.746Z,32.40
2018-06-30T15:21:48.085Z,32.20
2018-06-30T15:24:16.388Z,32.10
2018-06-30T15:26:44.728Z,32.10
2018-06-30T15:29:13.050Z,32.20
2018-06-30T15:31:41.385Z,32.40
2018-06-30T15:34:09.700Z,32.40
2018-06-30T15:36:38.053Z,32.40
2018-06-30T15:39:06.365Z,32.60
2018-06-30T15:41:34.701Z,32.60
2018-06-30T15:44:03.014Z,32.40
2018-06-30T15:46:31.343Z,32.10
2018-06-30T15:48:59.667Z,32.10
2018-06-30T15:51:28.008Z,32.10
2018-06-30T15:53:56.389Z,31.90
2018-06-30T15:56:24.665Z,31.90
2018-06-30T15:58:52.980Z,32.10
2018-06-30T16:01:21.318Z,32.30
2018-06-30T16:03:49.631Z,32.20
2018-06-30T16:06:17.963Z,32.20
2018-06-30T16:08:46.303Z,32.20
2018-06-30T16:11:14.621Z,32.30
2018-06-30T16:13:42.966Z,32.20
2018-06-30T16:16:10.545Z,32.10
2018-06-30T16:18:38.921Z,31.90
2018-06-30T16:21:07.245Z,31.90
2018-06-30T16:23:35.586Z,32.00
2018-06-30T16:26:03.906Z,31.90
2018-06-30T16:28:32.243Z,32.00
2018-06-30T16:31:00.558Z,32.20
2018-06-30T16:33:28.895Z,32.40
2018-06-30T16:35:57.207Z,32.40
2018-06-30T16:38:25.556Z,32.20
2018-06-30T16:40:53.868Z,32.10
2018-06-30T16:43:22.214Z,32.10
2018-06-30T16:45:50.531Z,31.90
2018-06-30T16:48:18.899Z,31.80
2018-06-30T16:50:47.298Z,31.50
2018-06-30T16:53:16.198Z,31.40
2018-06-30T16:55:44.565Z,31.10
2018-06-30T16:58:12.967Z,30.70
2018-06-30T17:00:41.364Z,30.30
2018-06-30T17:03:09.747Z,30.20
2018-06-30T17:05:38.100Z,30.60
2018-06-30T17:08:06.476Z,31.20
2018-06-30T17:10:34.781Z,32.10
2018-06-30T17:13:03.124Z,33.00
2018-06-30T17:15:31.452Z,33.80
2018-06-30T17:17:59.800Z,34.30
2018-06-30T17:20:28.119Z,34.80
2018-06-30T17:22:56.456Z,35.30
2018-06-30T17:25:24.774Z,35.90
2018-06-30T17:27:53.122Z,36.20
2018-06-30T17:30:20.672Z,36.20
2018-06-30T17:32:49.036Z,37.10
2018-06-30T17:35:17.557Z,37.50
2018-06-30T17:37:46.066Z,37.50
2018-06-30T17:40:14.464Z,37.30
2018-06-30T17:42:43.026Z,37.30
2018-06-30T17:45:11.427Z,37.60
2018-06-30T17:47:39.014Z,37.60
2018-06-30T17:50:07.370Z,37.70
2018-06-30T17:52:35.733Z,37.50
2018-06-30T17:55:04.060Z,37.20
2018-06-30T17:57:32.413Z,36.90
2018-06-30T18:00:00.725Z,36.90
2018-06-30T18:02:29.058Z,37.30
2018-06-30T18:04:57.391Z,37.20
2018-06-30T18:07:25.711Z,37.00
2018-06-30T18:09:54.049Z,36.90
2018-06-30T18:12:22.407Z,36.90
2018-06-30T18:14:50.745Z,37.00
2018-06-30T18:17:19.065Z,36.90
2018-06-30T18:19:47.416Z,36.80
2018-06-30T18:22:15.763Z,36.70
2018-06-30T18:24:44.201Z,36.40
2018-06-30T18:27:11.763Z,36.40
2018-06-30T18:29:40.173Z,36.30
2018-06-30T18:32:08.546Z,36.30
2018-06-30T18:34:36.887Z,36.00
2018-06-30T18:37:05.203Z,35.50
2018-06-30T18:39:33.559Z,34.40
2018-06-30T18:42:01.903Z,33.20
2018-06-30T18:44:30.249Z,32.00
2018-06-30T18:46:58.567Z,31.00
2018-06-30T18:49:26.935Z,30.10
2018-06-30T18:51:55.249Z,29.40
2018-06-30T18:54:23.589Z,28.80
2018-06-30T18:56:51.901Z,28.40
2018-06-30T18:59:20.245Z,28.00
2018-06-30T19:01:48.577Z,27.60
2018-06-30T19:04:16.930Z,27.30
2018-06-30T19:06:45.344Z,27.00
2018-06-30T19:09:13.090Z,26.90
2018-06-30T19:11:41.564Z,26.50
2018-06-30T19:14:09.946Z,26.30
2018-06-30T19:16:38.282Z,26.10
2018-06-30T19:19:06.622Z,26.00
2018-06-30T19:21:34.943Z,25.80
2018-06-30T19:24:03.283Z,25.70
2018-06-30T19:26:31.601Z,25.60
2018-06-30T19:28:59.943Z,25.40
2018-06-30T19:31:28.290Z,25.30
2018-06-30T19:33:56.634Z,25.10
2018-06-30T19:36:24.964Z,25.00
2018-06-30T19:38:53.302Z,24.80
2018-06-30T19:41:21.619Z,24.60
2018-06-30T19:43:49.969Z,24.40
2018-06-30T19:46:18.348Z,24.30
2018-06-30T19:48:46.745Z,24.10
2018-06-30T19:51:15.153Z,23.90
2018-06-30T19:53:43.688Z,23.70
2018-06-30T19:56:12.167Z,23.60
2018-06-30T19:58:40.692Z,23.50
2018-06-30T20:01:08.244Z,23.40
2018-06-30T20:03:36.559Z,23.10
2018-06-30T20:06:04.897Z,23.00
2018-06-30T20:08:33.206Z,22.90
2018-06-30T20:11:01.542Z,22.60
2018-06-30T20:13:29.858Z,22.50
2018-06-30T20:15:58.189Z,22.30
2018-06-30T20:18:26.504Z,22.20
2018-06-30T20:20:54.897Z,22.10
2018-06-30T20:23:23.175Z,22.00
2018-06-30T20:25:51.509Z,21.90
2018-06-30T20:28:19.878Z,21.70
2018-06-30T20:30:48.373Z,21.60
2018-06-30T20:33:16.541Z,21.50
2018-06-30T20:35:44.973Z,21.30
2018-06-30T20:38:13.435Z,21.20
2018-06-30T20:40:41.920Z,21.20
2018-06-30T20:43:10.398Z,21.00
2018-06-30T20:45:38.741Z,21.00
2018-06-30T20:48:07.057Z,20.90
2018-06-30T20:50:35.402Z,20.80
2018-06-30T20:53:03.731Z,20.70
2018-06-30T20:55:32.084Z,20.60
2018-06-30T20:58:00.396Z,20.60
2018-06-30T21:00:27.967Z,20.60
2018-06-30T21:02:56.273Z,20.30
2018-06-30T21:05:24.612Z,20.30
2018-06-30T21:07:52.930Z,20.20
2018-06-30T21:10:21.261Z,20.10
2018-06-30T21:12:49.601Z,20.00
2018-06-30T21:15:17.963Z,19.90
2018-06-30T21:17:46.329Z,19.80
2018-06-30T21:20:14.842Z,19.70
2018-06-30T21:22:43.300Z,19.70
2018-06-30T21:25:11.850Z,19.60
2018-06-30T21:27:40.341Z,19.60
2018-06-30T21:30:08.705Z,19.50
2018-06-30T21:32:37.017Z,19.40
2018-06-30T21:35:05.373Z,19.30
2018-06-30T21:37:33.716Z,19.30
2018-06-30T21:40:02.052Z,19.10
2018-06-30T21:42:30.365Z,19.10
2018-06-30T21:44:58.697Z,19.00
2018-06-30T21:47:27.010Z,18.90
2018-06-30T21:49:55.339Z,18.90
2018-06-30T21:52:23.657Z,18.80
2018-06-30T21:54:51.989Z,18.80
2018-06-30T21:57:20.350Z,18.70
2018-06-30T21:59:48.698Z,18.60
2018-06-30T22:02:17.069Z,18.50
2018-06-30T22:04:45.532Z,18.50
2018-06-30T22:07:14.289Z,18.40
2018-06-30T22:09:42.739Z,18.30
2018-06-30T22:12:11.196Z,18.20
2018-06-30T22:14:39.518Z,18.10
2018-06-30T22:17:07.883Z,18.10
2018-06-30T22:19:36.190Z,18.00
2018-06-30T22:22:04.537Z,18.00
2018-06-30T22:24:32.851Z,17.90
2018-06-30T22:27:01.199Z,17.90
2018-06-30T22:29:29.521Z,17.90
2018-06-30T22:31:57.866Z,17.80
2018-06-30T22:34:26.178Z,17.70
2018-06-30T22:36:54.523Z,17.60
2018-06-30T22:39:22.841Z,17.50
2018-06-30T22:41:51.181Z,17.50
2018-06-30T22:44:19.590Z,17.40
2018-06-30T22:46:48.050Z,17.40
2018-06-30T22:49:16.525Z,17.30
2018-06-30T22:51:45.016Z,17.30
2018-06-30T22:54:13.495Z,17.20
2018-06-30T22:56:42.044Z,17.20
2018-06-30T22:59:10.475Z,17.10
2018-06-30T23:01:38.837Z,17.10
2018-06-30T23:04:07.151Z,17.00
2018-06-30T23:06:35.489Z,17.00
2018-06-30T23:09:03.045Z,17.00
2018-06-30T23:11:31.382Z,16.90
2018-06-30T23:13:59.707Z,16.80
2018-06-30T23:16:28.049Z,16.80
2018-06-30T23:18:56.368Z,16.70
2018-06-30T23:21:24.701Z,16.70
2018-06-30T23:23:53.017Z,16.60
2018-06-30T23:26:21.362Z,16.60
2018-06-30T23:28:49.785Z,16.50
2018-06-30T23:31:18.231Z,16.40
2018-06-30T23:33:46.648Z,16.40
2018-06-30T23:36:15.215Z,16.40
2018-06-30T23:38:43.729Z,16.40
2018-06-30T23:41:12.201Z,16.30
2018-06-30T23:43:40.735Z,16.30
2018-06-30T23:46:09.076Z,16.20
2018-06-30T23:48:37.396Z,16.20
2018-06-30T23:51:05.727Z,16.20
2018-06-30T23:53:34.067Z,16.10
2018-06-30T23:56:02.409Z,16.10
2018-06-30T23:58:30.721Z,16.00
